createdAt,value
2023-02-11T00:00:45.000Z,7.17
2023-02-11T00:01:44.998Z,7.07
2023-02-11T00:02:47.715Z,7.17
2023-02-11T00:03:45.091Z,7.07
2023-02-11T00:04:44.988Z,7.07
2023-02-11T00:05:45.023Z,7.17
2023-02-11T00:06:44.989Z,6.98
2023-02-11T00:07:44.996Z,7.07
2023-02-11T00:08:45.009Z,7.07
2023-02-11T00:09:44.989Z,7.07
2023-02-11T00:10:44.979Z,7.07
2023-02-11T00:11:44.989Z,7.07
2023-02-11T00:12:44.987Z,7.07
2023-02-11T00:13:44.982Z,7.17
2023-02-11T00:14:44.973Z,7.07
2023-02-11T00:15:44.985Z,7.07
2023-02-11T00:16:45.116Z,7.07
2023-02-11T00:17:44.997Z,7.17
2023-02-11T00:18:44.997Z,7.17
2023-02-11T00:19:44.981Z,7.27
2023-02-11T00:20:44.968Z,7.07
2023-02-11T00:21:45.022Z,6.98
2023-02-11T00:22:44.969Z,7.17
2023-02-11T00:23:44.971Z,7.27
2023-02-11T00:24:44.964Z,7.17
2023-02-11T00:25:44.991Z,7.17
2023-02-11T00:26:44.980Z,7.27
2023-02-11T00:27:44.966Z,7.07
2023-02-11T00:28:44.961Z,6.98
2023-02-11T00:29:44.986Z,7.17
2023-02-11T00:30:45.115Z,7.17
2023-02-11T00:31:45.255Z,7.17
2023-02-11T00:32:44.952Z,7.17
2023-02-11T00:33:44.969Z,7.17
2023-02-11T00:34:44.965Z,7.17
2023-02-11T00:35:44.955Z,7.27
2023-02-11T00:36:44.946Z,7.17
2023-02-11T00:37:44.977Z,7.27
2023-02-11T00:38:44.949Z,7.17
2023-02-11T00:39:44.950Z,7.27
2023-02-11T00:40:44.943Z,7.17
2023-02-11T00:41:44.950Z,7.27
2023-02-11T00:42:44.938Z,7.17
2023-02-11T00:43:44.946Z,7.17
2023-02-11T00:44:44.948Z,7.07
2023-02-11T00:45:45.064Z,7.17
2023-02-11T00:46:44.995Z,7.17
2023-02-11T00:47:44.937Z,7.17
2023-02-11T00:48:44.944Z,7.07
2023-02-11T00:49:44.929Z,7.17
2023-02-11T00:50:44.936Z,6.98
2023-02-11T00:51:44.928Z,6.98
2023-02-11T00:52:44.949Z,7.07
2023-02-11T00:53:44.947Z,6.98
2023-02-11T00:54:44.932Z,7.07
2023-02-11T00:55:44.928Z,6.98
2023-02-11T00:56:44.943Z,6.98
2023-02-11T00:57:44.920Z,6.88
2023-02-11T00:58:44.927Z,6.78
2023-02-11T00:59:45.019Z,6.98
2023-02-11T01:00:44.927Z,6.98
2023-02-11T01:01:44.960Z,6.98
2023-02-11T01:02:44.923Z,6.98
2023-02-11T01:03:44.922Z,6.98
2023-02-11T01:04:44.922Z,6.98
2023-02-11T01:05:44.916Z,6.88
2023-02-11T01:06:44.924Z,6.88
2023-02-11T01:07:44.913Z,6.88
2023-02-11T01:08:44.920Z,6.88
2023-02-11T01:09:44.934Z,6.98
2023-02-11T01:10:44.917Z,6.98
2023-02-11T01:11:44.911Z,6.98
2023-02-11T01:12:44.928Z,7.07
2023-02-11T01:13:44.908Z,6.98
2023-02-11T01:14:44.912Z,7.07
2023-02-11T01:15:44.925Z,7.07
2023-02-11T01:16:44.913Z,6.98
2023-02-11T01:17:44.909Z,7.07
2023-02-11T01:18:44.919Z,6.98
2023-02-11T01:19:44.901Z,6.98
2023-02-11T01:20:44.908Z,6.88
2023-02-11T01:21:44.912Z,6.88
2023-02-11T01:22:44.912Z,6.98
2023-02-11T01:23:44.907Z,6.98
2023-02-11T01:24:44.904Z,6.88
2023-02-11T01:25:44.917Z,6.98
2023-02-11T01:26:44.901Z,6.98
2023-02-11T01:27:44.899Z,6.98
2023-02-11T01:28:44.905Z,6.98
2023-02-11T01:29:44.891Z,6.98
2023-02-11T01:30:44.926Z,6.88
2023-02-11T01:31:44.922Z,6.88
2023-02-11T01:32:44.899Z,7.27
2023-02-11T01:33:44.893Z,6.98
2023-02-11T01:34:44.895Z,6.88
2023-02-11T01:35:44.884Z,6.98
2023-02-11T01:36:44.899Z,7.27
2023-02-11T01:37:44.883Z,7.27
2023-02-11T01:38:44.897Z,7.27
2023-02-11T01:39:44.882Z,7.27
2023-02-11T01:40:44.887Z,7.27
2023-02-11T01:41:44.902Z,7.27
2023-02-11T01:42:44.884Z,7.17
2023-02-11T01:43:44.876Z,7.27
2023-02-11T01:44:44.887Z,7.27
2023-02-11T01:45:44.875Z,7.17
2023-02-11T01:46:44.915Z,7.27
2023-02-11T01:47:44.872Z,7.27
2023-02-11T01:48:44.880Z,7.27
2023-02-11T01:49:44.874Z,7.27
2023-02-11T01:50:44.876Z,7.27
2023-02-11T01:51:44.871Z,7.27
2023-02-11T01:52:44.874Z,7.27
2023-02-11T01:53:44.869Z,7.17
2023-02-11T01:54:44.888Z,7.17
2023-02-11T01:55:44.865Z,7.27
2023-02-11T01:56:44.868Z,7.17
2023-02-11T01:57:44.882Z,7.27
2023-02-11T01:58:44.866Z,7.27
2023-02-11T01:59:44.858Z,7.27
2023-02-11T02:00:44.863Z,7.27
2023-02-11T02:01:44.904Z,7.27
2023-02-11T02:02:44.867Z,7.27
2023-02-11T02:03:44.910Z,7.27
2023-02-11T02:04:44.863Z,7.37
2023-02-11T02:05:44.854Z,7.27
2023-02-11T02:06:44.859Z,7.37
2023-02-11T02:07:44.849Z,7.56
2023-02-11T02:08:44.856Z,7.27
2023-02-11T02:09:44.847Z,7.27
2023-02-11T02:10:44.854Z,7.46
2023-02-11T02:11:44.844Z,7.56
2023-02-11T02:12:44.856Z,7.46
2023-02-11T02:13:44.870Z,7.37
2023-02-11T02:14:44.849Z,7.37
2023-02-11T02:15:44.884Z,7.37
2023-02-11T02:16:44.844Z,7.27
2023-02-11T02:17:44.842Z,7.46
2023-02-11T02:18:44.843Z,7.46
2023-02-11T02:19:44.840Z,7.37
2023-02-11T02:20:44.840Z,7.46
2023-02-11T02:21:44.834Z,7.46
2023-02-11T02:22:44.835Z,7.46
2023-02-11T02:23:44.826Z,7.46
2023-02-11T02:24:44.832Z,7.46
2023-02-11T02:25:44.823Z,7.37
2023-02-11T02:26:44.837Z,7.46
2023-02-11T02:27:44.821Z,7.46
2023-02-11T02:28:44.827Z,7.37
2023-02-11T02:29:44.841Z,7.37
2023-02-11T02:30:44.927Z,7.37
2023-02-11T02:31:44.848Z,7.27
2023-02-11T02:32:44.821Z,7.37
2023-02-11T02:33:44.814Z,7.46
2023-02-11T02:34:44.819Z,7.37
2023-02-11T02:35:44.811Z,7.46
2023-02-11T02:36:44.818Z,7.37
2023-02-11T02:37:44.810Z,7.46
2023-02-11T02:38:44.814Z,7.37
2023-02-11T02:39:44.807Z,7.46
2023-02-11T02:40:44.813Z,7.37
2023-02-11T02:41:44.805Z,7.37
2023-02-11T02:42:44.811Z,7.17
2023-02-11T02:43:44.803Z,7.27
2023-02-11T02:44:44.808Z,7.27
2023-02-11T02:45:44.824Z,7.37
2023-02-11T02:46:44.903Z,7.37
2023-02-11T02:47:44.798Z,7.37
2023-02-11T02:48:44.803Z,7.37
2023-02-11T02:49:44.799Z,7.27
2023-02-11T02:50:44.802Z,7.27
2023-02-11T02:51:44.802Z,7.17
2023-02-11T02:52:44.801Z,7.37
2023-02-11T02:53:44.798Z,7.37
2023-02-11T02:54:44.800Z,7.37
2023-02-11T02:55:44.790Z,7.27
2023-02-11T02:56:44.797Z,7.37
2023-02-11T02:57:44.788Z,7.37
2023-02-11T02:58:47.067Z,7.37
2023-02-11T02:59:44.793Z,7.37
2023-02-11T03:00:44.860Z,7.27
2023-02-11T03:01:44.811Z,7.56
2023-02-11T03:02:44.792Z,7.56
2023-02-11T03:03:44.828Z,7.46
2023-02-11T03:04:44.792Z,7.37
2023-02-11T03:05:44.783Z,7.17
2023-02-11T03:06:44.791Z,7.56
2023-02-11T03:07:44.782Z,7.37
2023-02-11T03:08:44.795Z,7.37
2023-02-11T03:09:44.777Z,7.37
2023-02-11T03:10:44.782Z,7.37
2023-02-11T03:11:44.774Z,7.37
2023-02-11T03:12:44.785Z,7.37
2023-02-11T03:13:44.777Z,7.37
2023-02-11T03:14:44.777Z,7.37
2023-02-11T03:15:44.772Z,7.37
2023-02-11T03:16:44.779Z,7.27
2023-02-11T03:17:44.791Z,7.46
2023-02-11T03:18:44.774Z,7.37
2023-02-11T03:19:44.766Z,7.37
2023-02-11T03:20:44.785Z,7.37
2023-02-11T03:21:44.765Z,7.27
2023-02-11T03:22:44.775Z,7.27
2023-02-11T03:23:44.768Z,7.37
2023-02-11T03:24:44.770Z,7.27
2023-02-11T03:25:44.760Z,7.37
2023-02-11T03:26:44.765Z,7.37
2023-02-11T03:27:44.756Z,7.27
2023-02-11T03:28:44.764Z,7.37
2023-02-11T03:29:44.755Z,7.27
2023-02-11T03:30:44.778Z,7.27
2023-02-11T03:31:44.898Z,7.37
2023-02-11T03:32:44.770Z,7.37
2023-02-11T03:33:44.774Z,7.37
2023-02-11T03:34:44.759Z,7.37
2023-02-11T03:35:44.747Z,7.37
2023-02-11T03:36:44.753Z,7.27
2023-02-11T03:37:44.750Z,7.27
2023-02-11T03:38:44.750Z,7.27
2023-02-11T03:39:44.757Z,7.27
2023-02-11T03:40:44.754Z,7.37
2023-02-11T03:41:44.747Z,7.27
2023-02-11T03:42:44.751Z,7.27
2023-02-11T03:43:44.739Z,7.27
2023-02-11T03:44:44.747Z,7.27
2023-02-11T03:45:44.767Z,7.27
2023-02-11T03:46:44.742Z,7.27
2023-02-11T03:47:44.741Z,7.27
2023-02-11T03:48:44.740Z,7.27
2023-02-11T03:49:44.753Z,7.27
2023-02-11T03:50:44.738Z,7.27
2023-02-11T03:51:44.736Z,7.37
2023-02-11T03:52:44.735Z,7.27
2023-02-11T03:53:44.732Z,7.46
2023-02-11T03:54:44.734Z,7.17
2023-02-11T03:55:44.728Z,7.37
2023-02-11T03:56:44.732Z,7.37
2023-02-11T03:57:44.742Z,7.17
2023-02-11T03:58:44.730Z,7.37
2023-02-11T03:59:44.872Z,7.17
2023-02-11T04:00:44.827Z,7.17
2023-02-11T04:01:44.729Z,7.17
2023-02-11T04:02:44.795Z,7.27
2023-02-11T04:03:44.723Z,7.17
2023-02-11T04:04:44.725Z,7.17
2023-02-11T04:05:44.749Z,7.17
2023-02-11T04:06:44.726Z,7.17
2023-02-11T04:07:44.721Z,7.17
2023-02-11T04:08:44.718Z,7.27
2023-02-11T04:09:44.712Z,7.07
2023-02-11T04:10:44.715Z,7.07
2023-02-11T04:11:44.727Z,7.27
2023-02-11T04:12:44.721Z,7.27
2023-02-11T04:13:44.704Z,7.27
2023-02-11T04:14:44.709Z,7.17
2023-02-11T04:15:46.234Z,7.07
2023-02-11T04:16:44.789Z,7.17
2023-02-11T04:17:44.701Z,7.27
2023-02-11T04:18:44.711Z,7.27
2023-02-11T04:19:44.703Z,7.46
2023-02-11T04:20:44.709Z,7.46
2023-02-11T04:21:44.734Z,7.27
2023-02-11T04:22:44.702Z,7.27
2023-02-11T04:23:44.710Z,7.56
2023-02-11T04:24:44.700Z,7.46
2023-02-11T04:25:44.694Z,7.46
2023-02-11T04:26:44.705Z,7.37
2023-02-11T04:27:44.688Z,7.46
2023-02-11T04:28:44.704Z,7.46
2023-02-11T04:29:44.688Z,7.56
2023-02-11T04:30:44.753Z,7.56
2023-02-11T04:31:44.706Z,7.56
2023-02-11T04:32:44.692Z,7.56
2023-02-11T04:33:44.685Z,7.56
2023-02-11T04:34:44.693Z,7.56
2023-02-11T04:35:44.682Z,7.65
2023-02-11T04:36:44.688Z,7.56
2023-02-11T04:37:44.706Z,7.56
2023-02-11T04:38:44.692Z,7.56
2023-02-11T04:39:44.679Z,7.65
2023-02-11T04:40:44.686Z,7.56
2023-02-11T04:41:44.675Z,7.65
2023-02-11T04:42:44.685Z,7.65
2023-02-11T04:43:44.673Z,7.56
2023-02-11T04:44:44.684Z,7.65
2023-02-11T04:45:44.731Z,7.65
2023-02-11T04:46:44.676Z,7.65
2023-02-11T04:47:44.668Z,7.56
2023-02-11T04:48:44.674Z,7.65
2023-02-11T04:49:44.673Z,7.65
2023-02-11T04:50:44.674Z,7.65
2023-02-11T04:51:46.010Z,7.65
2023-02-11T04:52:44.670Z,7.56
2023-02-11T04:53:44.685Z,7.65
2023-02-11T04:54:44.668Z,7.65
2023-02-11T04:55:44.673Z,7.56
2023-02-11T04:56:44.680Z,7.56
2023-02-11T04:57:44.668Z,7.75
2023-02-11T04:58:44.663Z,7.56
2023-02-11T04:59:44.653Z,7.65
2023-02-11T05:00:44.667Z,7.56
2023-02-11T05:01:44.660Z,7.56
2023-02-11T05:02:44.657Z,7.56
2023-02-11T05:03:44.696Z,7.75
2023-02-11T05:04:44.649Z,7.56
2023-02-11T05:05:44.654Z,7.56
2023-02-11T05:06:44.649Z,7.65
2023-02-11T05:07:44.653Z,7.65
2023-02-11T05:08:44.645Z,7.65
2023-02-11T05:09:44.679Z,7.56
2023-02-11T05:10:44.643Z,7.56
2023-02-11T05:11:44.665Z,7.56
2023-02-11T05:12:44.640Z,7.27
2023-02-11T05:13:44.645Z,7.27
2023-02-11T05:14:44.636Z,7.17
2023-02-11T05:15:44.642Z,7.27
2023-02-11T05:16:44.735Z,7.27
2023-02-11T05:17:44.642Z,7.37
2023-02-11T05:18:44.632Z,7.37
2023-02-11T05:19:44.644Z,7.37
2023-02-11T05:20:44.631Z,7.37
2023-02-11T05:22:00.252Z,7.27
2023-02-11T05:22:44.628Z,7.56
2023-02-11T05:23:44.634Z,7.37
2023-02-11T05:24:44.634Z,7.27
2023-02-11T05:25:44.654Z,7.37
2023-02-11T05:26:44.627Z,7.27
2023-02-11T05:27:44.629Z,7.27
2023-02-11T05:28:44.618Z,7.27
2023-02-11T05:29:44.626Z,7.27
2023-02-11T05:30:44.677Z,7.07
2023-02-11T05:31:44.625Z,6.98
2023-02-11T05:32:44.618Z,6.88
2023-02-11T05:33:44.623Z,7.07
2023-02-11T05:34:44.617Z,6.98
2023-02-11T05:35:44.618Z,7.07
2023-02-11T05:36:44.619Z,6.88
2023-02-11T05:37:44.617Z,6.88
2023-02-11T05:38:44.608Z,6.98
2023-02-11T05:39:44.613Z,7.07
2023-02-11T05:40:44.605Z,6.88
2023-02-11T05:41:44.650Z,6.98
2023-02-11T05:42:44.603Z,6.98
2023-02-11T05:43:44.610Z,6.88
2023-02-11T05:44:44.604Z,6.98
2023-02-11T05:45:44.607Z,6.88
2023-02-11T05:46:44.697Z,6.98
2023-02-11T05:47:44.612Z,7.07
2023-02-11T05:48:44.596Z,6.98
2023-02-11T05:49:44.609Z,7.27
2023-02-11T05:50:44.595Z,7.17
2023-02-11T05:51:44.608Z,7.17
2023-02-11T05:52:44.595Z,7.17
2023-02-11T05:53:44.599Z,7.07
2023-02-11T05:54:44.598Z,7.37
2023-02-11T05:55:44.602Z,7.17
2023-02-11T05:56:45.049Z,7.27
2023-02-11T05:57:44.624Z,7.27
2023-02-11T05:58:44.596Z,7.17
2023-02-11T05:59:44.592Z,7.17
2023-02-11T06:00:44.583Z,7.17
2023-02-11T06:01:44.595Z,7.07
2023-02-11T06:02:44.594Z,7.07
2023-02-11T06:03:44.653Z,7.07
2023-02-11T06:04:44.607Z,7.17
2023-02-11T06:05:44.584Z,7.17
2023-02-11T06:06:44.574Z,7.17
2023-02-11T06:07:44.580Z,7.17
2023-02-11T06:08:44.572Z,7.27
2023-02-11T06:09:44.581Z,7.27
2023-02-11T06:10:44.570Z,7.17
2023-02-11T06:11:44.585Z,7.17
2023-02-11T06:12:44.567Z,7.17
2023-02-11T06:13:44.596Z,7.17
2023-02-11T06:14:44.565Z,7.17
2023-02-11T06:15:44.648Z,7.17
2023-02-11T06:16:44.563Z,7.17
2023-02-11T06:17:44.590Z,7.07
2023-02-11T06:18:44.561Z,7.07
2023-02-11T06:19:44.567Z,7.07
2023-02-11T06:20:44.560Z,6.88
2023-02-11T06:21:44.738Z,7.07
2023-02-11T06:22:44.558Z,6.98
2023-02-11T06:23:44.562Z,6.98
2023-02-11T06:25:00.231Z,6.98
2023-02-11T06:25:44.566Z,6.98
2023-02-11T06:26:44.560Z,6.88
2023-02-11T06:27:44.558Z,6.88
2023-02-11T06:28:44.640Z,7.07
2023-02-11T06:29:44.609Z,7.07
2023-02-11T06:30:44.563Z,6.98
2023-02-11T06:31:44.719Z,6.98
2023-02-11T06:32:45.936Z,7.07
2023-02-11T06:33:44.555Z,7.07
2023-02-11T06:34:44.545Z,7.07
2023-02-11T06:35:44.550Z,6.88
2023-02-11T06:36:44.542Z,7.07
2023-02-11T06:37:44.549Z,6.98
2023-02-11T06:38:44.539Z,6.88
2023-02-11T06:39:44.545Z,7.07
2023-02-11T06:40:44.540Z,6.88
2023-02-11T06:41:44.543Z,6.98
2023-02-11T06:42:44.535Z,7.27
2023-02-11T06:43:44.551Z,7.27
2023-02-11T06:44:44.535Z,6.98
2023-02-11T06:45:44.562Z,7.27
2023-02-11T06:46:44.552Z,6.98
2023-02-11T06:47:44.538Z,6.88
2023-02-11T06:48:45.098Z,7.37
2023-02-11T06:49:44.534Z,7.07
2023-02-11T06:50:44.524Z,7.27
2023-02-11T06:51:44.540Z,6.98
2023-02-11T06:52:44.522Z,7.27
2023-02-11T06:53:44.528Z,7.27
2023-02-11T06:54:44.520Z,6.98
2023-02-11T06:55:44.533Z,7.27
2023-02-11T06:56:44.520Z,7.27
2023-02-11T06:57:44.536Z,6.98
2023-02-11T06:58:44.529Z,7.17
2023-02-11T06:59:44.687Z,7.27
2023-02-11T07:00:44.513Z,7.27
2023-02-11T07:01:44.645Z,7.27
2023-02-11T07:02:44.586Z,7.27
2023-02-11T07:03:44.527Z,7.17
2023-02-11T07:04:44.508Z,7.17
2023-02-11T07:05:44.521Z,7.27
2023-02-11T07:06:44.515Z,7.27
2023-02-11T07:07:44.516Z,7.27
2023-02-11T07:08:44.505Z,7.27
2023-02-11T07:09:44.512Z,7.26
2023-02-11T07:10:44.501Z,7.17
2023-02-11T07:11:44.507Z,7.27
2023-02-11T07:12:44.503Z,7.27
2023-02-11T07:13:44.510Z,7.17
2023-02-11T07:14:44.496Z,7.36
2023-02-11T07:15:44.514Z,7.36
2023-02-11T07:16:44.496Z,7.27
2023-02-11T07:17:44.524Z,7.37
2023-02-11T07:18:44.496Z,7.26
2023-02-11T07:19:44.508Z,7.26
2023-02-11T07:20:44.495Z,7.17
2023-02-11T07:21:44.497Z,7.26
2023-02-11T07:22:44.487Z,7.17
2023-02-11T07:23:44.495Z,7.27
2023-02-11T07:24:44.488Z,7.17
2023-02-11T07:25:44.491Z,7.27
2023-02-11T07:26:44.484Z,7.26
2023-02-11T07:27:44.490Z,7.17
2023-02-11T07:28:44.480Z,7.27
2023-02-11T07:29:44.487Z,7.27
2023-02-11T07:30:44.513Z,7.26
2023-02-11T07:31:44.635Z,7.26
2023-02-11T07:32:44.475Z,7.26
2023-02-11T07:33:44.507Z,7.26
2023-02-11T07:34:44.545Z,7.26
2023-02-11T07:35:44.481Z,7.27
2023-02-11T07:36:44.473Z,7.27
2023-02-11T07:37:44.479Z,7.27
2023-02-11T07:38:44.475Z,7.27
2023-02-11T07:39:44.477Z,7.27
2023-02-11T07:40:44.467Z,7.46
2023-02-11T07:41:44.479Z,7.26
2023-02-11T07:42:44.464Z,7.27
2023-02-11T07:43:44.482Z,7.27
2023-02-11T07:44:44.464Z,7.37
2023-02-11T07:45:44.490Z,7.26
2023-02-11T07:46:44.536Z,7.26
2023-02-11T07:47:44.465Z,7.36
2023-02-11T07:48:44.462Z,7.17
2023-02-11T07:49:44.484Z,7.17
2023-02-11T07:50:44.453Z,7.27
2023-02-11T07:51:44.463Z,7.26
2023-02-11T07:52:44.453Z,7.27
2023-02-11T07:53:44.458Z,7.26
2023-02-11T07:54:44.448Z,7.17
2023-02-11T07:55:44.455Z,7.27
2023-02-11T07:56:44.452Z,7.17
2023-02-11T07:57:44.457Z,7.17
2023-02-11T07:58:44.446Z,7.27
2023-02-11T07:59:44.469Z,7.17
2023-02-11T08:00:44.454Z,7.27
2023-02-11T08:01:44.445Z,7.37
2023-02-11T08:02:44.438Z,7.17
2023-02-11T08:03:44.454Z,7.26
2023-02-11T08:04:44.448Z,7.27
2023-02-11T08:05:44.464Z,7.27
2023-02-11T08:06:44.432Z,7.17
2023-02-11T08:07:44.440Z,7.17
2023-02-11T08:08:44.431Z,7.27
2023-02-11T08:09:44.439Z,7.17
2023-02-11T08:10:44.428Z,7.17
2023-02-11T08:11:44.439Z,7.27
2023-02-11T08:12:44.427Z,7.27
2023-02-11T08:13:44.431Z,7.27
2023-02-11T08:14:44.422Z,7.27
2023-02-11T08:15:44.436Z,7.27
2023-02-11T08:16:44.466Z,7.26
2023-02-11T08:17:44.427Z,7.27
2023-02-11T08:18:44.419Z,7.17
2023-02-11T08:19:44.423Z,7.37
2023-02-11T08:20:44.416Z,7.26
2023-02-11T08:21:44.448Z,7.27
2023-02-11T08:22:44.411Z,7.27
2023-02-11T08:23:44.419Z,7.26
2023-02-11T08:24:44.409Z,7.27
2023-02-11T08:25:44.415Z,7.27
2023-02-11T08:26:44.409Z,7.27
2023-02-11T08:27:44.412Z,7.27
2023-02-11T08:28:44.405Z,7.27
2023-02-11T08:29:44.409Z,7.27
2023-02-11T08:30:44.450Z,7.17
2023-02-11T08:31:44.566Z,7.27
2023-02-11T08:32:44.397Z,7.17
2023-02-11T08:33:44.404Z,7.37
2023-02-11T08:34:44.395Z,7.27
2023-02-11T08:35:44.401Z,7.17
2023-02-11T08:36:44.393Z,7.27
2023-02-11T08:37:44.421Z,7.27
2023-02-11T08:38:44.410Z,7.27
2023-02-11T08:39:44.397Z,7.27
2023-02-11T08:40:44.402Z,7.27
2023-02-11T08:41:44.395Z,7.37
2023-02-11T08:42:44.386Z,7.27
2023-02-11T08:43:44.394Z,7.27
2023-02-11T08:44:44.386Z,7.46
2023-02-11T08:45:44.420Z,7.37
2023-02-11T08:46:44.385Z,7.27
2023-02-11T08:47:44.389Z,7.27
2023-02-11T08:48:44.384Z,7.37
2023-02-11T08:49:44.388Z,7.37
2023-02-11T08:50:44.378Z,7.37
2023-02-11T08:51:44.384Z,7.26
2023-02-11T08:52:44.375Z,7.27
2023-02-11T08:53:44.405Z,7.27
2023-02-11T08:54:44.375Z,7.17
2023-02-11T08:55:44.380Z,7.27
2023-02-11T08:56:44.372Z,7.27
2023-02-11T08:57:44.377Z,7.27
2023-02-11T08:58:44.368Z,7.27
2023-02-11T08:59:44.377Z,7.27
2023-02-11T09:00:44.369Z,7.27
2023-02-11T09:01:44.751Z,7.27
2023-02-11T09:02:44.437Z,7.27
2023-02-11T09:03:44.391Z,7.27
2023-02-11T09:04:44.369Z,7.27
2023-02-11T09:05:44.369Z,7.27
2023-02-11T09:06:44.362Z,7.27
2023-02-11T09:07:44.365Z,7.27
2023-02-11T09:08:46.375Z,7.37
2023-02-11T09:09:44.388Z,7.27
2023-02-11T09:10:44.376Z,7.27
2023-02-11T09:11:44.359Z,7.27
2023-02-11T09:12:44.353Z,7.37
2023-02-11T09:13:44.363Z,7.27
2023-02-11T09:14:44.355Z,7.37
2023-02-11T09:15:44.357Z,7.27
2023-02-11T09:16:44.415Z,7.46
2023-02-11T09:17:44.356Z,7.27
2023-02-11T09:18:44.345Z,7.37
2023-02-11T09:19:44.351Z,7.46
2023-02-11T09:20:44.349Z,7.27
2023-02-11T09:21:44.341Z,7.37
2023-02-11T09:22:44.350Z,7.46
2023-02-11T09:23:44.342Z,7.46
2023-02-11T09:24:44.346Z,7.46
2023-02-11T09:25:44.368Z,7.37
2023-02-11T09:26:44.348Z,7.46
2023-02-11T09:27:44.342Z,7.56
2023-02-11T09:28:44.348Z,7.37
2023-02-11T09:29:44.338Z,7.27
2023-02-11T09:30:44.453Z,7.56
2023-02-11T09:31:44.464Z,7.37
2023-02-11T09:32:44.349Z,7.56
2023-02-11T09:33:44.337Z,7.46
2023-02-11T09:34:44.339Z,7.37
2023-02-11T09:35:44.331Z,7.56
2023-02-11T09:36:44.348Z,7.56
2023-02-11T09:37:44.343Z,7.27
2023-02-11T09:38:44.344Z,7.27
2023-02-11T09:39:44.324Z,7.46
2023-02-11T09:40:44.328Z,7.37
2023-02-11T09:41:44.360Z,7.37
2023-02-11T09:42:44.325Z,7.56
2023-02-11T09:43:44.320Z,7.56
2023-02-11T09:44:44.330Z,7.37
2023-02-11T09:45:44.399Z,7.27
2023-02-11T09:46:44.321Z,7.27
2023-02-11T09:47:44.312Z,7.56
2023-02-11T09:48:44.319Z,7.56
2023-02-11T09:49:44.310Z,7.46
2023-02-11T09:50:44.322Z,7.46
2023-02-11T09:51:44.309Z,7.37
2023-02-11T09:52:44.315Z,7.56
2023-02-11T09:53:44.315Z,7.37
2023-02-11T09:54:44.312Z,7.37
2023-02-11T09:55:44.305Z,7.37
2023-02-11T09:56:44.314Z,7.46
2023-02-11T09:57:44.337Z,7.37
2023-02-11T09:58:44.313Z,7.46
2023-02-11T09:59:44.302Z,7.37
2023-02-11T10:00:44.335Z,7.46
2023-02-11T10:01:44.349Z,7.46
2023-02-11T10:02:44.310Z,7.46
2023-02-11T10:03:44.299Z,7.46
2023-02-11T10:04:44.372Z,7.46
2023-02-11T10:05:44.301Z,7.37
2023-02-11T10:06:44.310Z,7.46
2023-02-11T10:07:44.294Z,7.46
2023-02-11T10:08:44.391Z,7.46
2023-02-11T10:09:44.294Z,7.46
2023-02-11T10:10:44.298Z,7.46
2023-02-11T10:11:44.291Z,7.46
2023-02-11T10:12:44.305Z,7.46
2023-02-11T10:13:44.310Z,7.37
2023-02-11T10:14:44.302Z,7.37
2023-02-11T10:15:44.389Z,7.37
2023-02-11T10:16:44.294Z,7.37
2023-02-11T10:17:44.294Z,7.37
2023-02-11T10:18:44.302Z,7.46
2023-02-11T10:19:44.285Z,7.17
2023-02-11T10:20:44.289Z,7.56
2023-02-11T10:21:44.280Z,7.37
2023-02-11T10:22:44.286Z,7.37
2023-02-11T10:23:44.291Z,7.37
2023-02-11T10:24:44.285Z,7.37
2023-02-11T10:25:45.371Z,7.37
2023-02-11T10:26:44.287Z,7.56
2023-02-11T10:27:44.276Z,7.37
2023-02-11T10:28:44.544Z,7.37
2023-02-11T10:29:44.292Z,7.46
2023-02-11T10:30:44.393Z,7.46
2023-02-11T10:31:44.337Z,7.37
2023-02-11T10:32:44.276Z,7.46
2023-02-11T10:33:44.285Z,7.46
2023-02-11T10:34:44.270Z,7.46
2023-02-11T10:35:44.262Z,7.37
2023-02-11T10:36:44.275Z,7.37
2023-02-11T10:37:44.681Z,7.37
2023-02-11T10:38:44.268Z,7.46
2023-02-11T10:39:44.259Z,7.37
2023-02-11T10:40:44.265Z,7.37
2023-02-11T10:41:44.259Z,7.37
2023-02-11T10:42:44.263Z,7.37
2023-02-11T10:43:44.253Z,7.37
2023-02-11T10:44:44.267Z,7.46
2023-02-11T10:45:44.275Z,7.46
2023-02-11T10:46:44.340Z,7.46
2023-02-11T10:47:44.252Z,7.56
2023-02-11T10:48:44.256Z,7.46
2023-02-11T10:49:44.260Z,7.46
2023-02-11T10:50:44.253Z,7.37
2023-02-11T10:51:44.247Z,7.37
2023-02-11T10:52:44.252Z,7.46
2023-02-11T10:53:44.242Z,7.56
2023-02-11T10:54:44.247Z,7.37
2023-02-11T10:55:44.241Z,7.46
2023-02-11T10:56:44.246Z,7.46
2023-02-11T10:57:44.240Z,7.46
2023-02-11T10:58:44.243Z,7.46
2023-02-11T10:59:44.245Z,7.37
2023-02-11T11:00:44.241Z,7.37
2023-02-11T11:01:44.301Z,7.46
2023-02-11T11:02:44.237Z,7.46
2023-02-11T11:03:44.231Z,7.37
2023-02-11T11:04:44.292Z,7.56
2023-02-11T11:05:44.229Z,7.46
2023-02-11T11:06:44.235Z,7.27
2023-02-11T11:07:44.242Z,7.17
2023-02-11T11:08:44.277Z,7.37
2023-02-11T11:09:44.223Z,7.27
2023-02-11T11:10:44.312Z,7.37
2023-02-11T11:11:44.229Z,7.37
2023-02-11T11:12:44.232Z,7.37
2023-02-11T11:13:44.221Z,7.37
2023-02-11T11:14:44.233Z,7.37
2023-02-11T11:15:44.243Z,7.37
2023-02-11T11:16:44.226Z,7.37
2023-02-11T11:17:44.243Z,7.17
2023-02-11T11:18:44.224Z,7.27
2023-02-11T11:19:44.212Z,7.27
2023-02-11T11:20:44.219Z,7.17
2023-02-11T11:21:44.213Z,7.17
2023-02-11T11:22:44.240Z,7.37
2023-02-11T11:23:44.213Z,7.46
2023-02-11T11:24:44.217Z,7.37
2023-02-11T11:25:44.209Z,7.37
2023-02-11T11:26:44.212Z,7.17
2023-02-11T11:27:44.203Z,7.37
2023-02-11T11:28:44.212Z,7.46
2023-02-11T11:29:44.207Z,7.37
2023-02-11T11:30:44.250Z,7.27
2023-02-11T11:31:44.227Z,7.17
2023-02-11T11:32:44.207Z,7.37
2023-02-11T11:33:44.220Z,7.37
2023-02-11T11:34:44.203Z,7.27
2023-02-11T11:35:44.198Z,7.37
2023-02-11T11:36:44.215Z,7.37
2023-02-11T11:37:44.192Z,7.37
2023-02-11T11:38:44.196Z,7.27
2023-02-11T11:39:44.189Z,7.17
2023-02-11T11:40:44.201Z,7.37
2023-02-11T11:41:44.186Z,7.37
2023-02-11T11:42:44.190Z,7.37
2023-02-11T11:43:44.181Z,7.37
2023-02-11T11:44:44.187Z,7.17
2023-02-11T11:45:44.178Z,7.46
2023-02-11T11:46:44.278Z,7.46
2023-02-11T11:47:44.177Z,7.37
2023-02-11T11:48:44.182Z,7.46
2023-02-11T11:49:44.247Z,7.27
2023-02-11T11:50:44.182Z,7.27
2023-02-11T11:51:44.173Z,7.27
2023-02-11T11:52:44.177Z,7.17
2023-02-11T11:53:44.189Z,7.37
2023-02-11T11:54:44.173Z,7.27
2023-02-11T11:55:44.167Z,7.37
2023-02-11T11:56:44.173Z,7.37
2023-02-11T11:57:44.165Z,7.27
2023-02-11T11:58:44.170Z,7.37
2023-02-11T11:59:44.162Z,7.37
2023-02-11T12:00:44.168Z,7.46
2023-02-11T12:01:44.261Z,7.37
2023-02-11T12:02:44.223Z,7.37
2023-02-11T12:03:44.158Z,7.27
2023-02-11T12:04:44.165Z,7.27
2023-02-11T12:05:44.178Z,7.37
2023-02-11T12:06:44.162Z,7.37
2023-02-11T12:07:44.168Z,7.46
2023-02-11T12:08:44.159Z,7.27
2023-02-11T12:09:44.154Z,7.37
2023-02-11T12:10:44.156Z,7.27
2023-02-11T12:11:44.148Z,7.27
2023-02-11T12:12:46.727Z,7.27
2023-02-11T12:13:44.160Z,7.17
2023-02-11T12:14:44.177Z,7.27
2023-02-11T12:15:44.142Z,7.27
2023-02-11T12:16:44.225Z,7.46
2023-02-11T12:17:44.141Z,7.27
2023-02-11T12:18:47.252Z,7.37
2023-02-11T12:19:44.138Z,7.37
2023-02-11T12:20:44.144Z,7.37
2023-02-11T12:21:44.161Z,7.27
2023-02-11T12:22:44.144Z,7.37
2023-02-11T12:23:44.137Z,7.37
2023-02-11T12:24:44.143Z,7.37
2023-02-11T12:25:44.138Z,7.37
2023-02-11T12:26:44.141Z,7.37
2023-02-11T12:27:44.147Z,7.27
2023-02-11T12:28:44.144Z,7.37
2023-02-11T12:29:44.134Z,7.37
2023-02-11T12:30:44.169Z,7.27
2023-02-11T12:31:44.258Z,7.56
2023-02-11T12:32:44.133Z,7.37
2023-02-11T12:33:44.129Z,7.27
2023-02-11T12:34:44.133Z,7.27
2023-02-11T12:35:44.127Z,7.27
2023-02-11T12:36:44.135Z,7.37
2023-02-11T12:37:44.154Z,7.56
2023-02-11T12:38:44.128Z,7.37
2023-02-11T12:39:44.120Z,7.17
2023-02-11T12:40:44.136Z,7.46
2023-02-11T12:41:44.143Z,7.27
2023-02-11T12:42:44.128Z,7.37
2023-02-11T12:43:44.114Z,7.56
2023-02-11T12:44:44.120Z,7.27
2023-02-11T12:45:44.140Z,7.37
2023-02-11T12:46:44.116Z,7.46
2023-02-11T12:47:44.121Z,7.46
2023-02-11T12:48:44.120Z,7.37
2023-02-11T12:49:44.111Z,7.56
2023-02-11T12:50:44.151Z,7.27
2023-02-11T12:51:44.109Z,7.27
2023-02-11T12:52:44.111Z,7.37
2023-02-11T12:53:44.127Z,7.27
2023-02-11T12:54:44.108Z,7.37
2023-02-11T12:55:44.100Z,7.27
2023-02-11T12:56:44.106Z,7.27
2023-02-11T12:57:44.104Z,7.56
2023-02-11T12:58:45.673Z,7.37
2023-02-11T12:59:44.101Z,7.37
2023-02-11T13:00:44.132Z,7.37
2023-02-11T13:01:44.216Z,7.56
2023-02-11T13:02:44.151Z,7.56
2023-02-11T13:03:44.093Z,7.37
2023-02-11T13:04:44.100Z,7.27
2023-02-11T13:05:44.098Z,7.37
2023-02-11T13:06:44.098Z,7.37
2023-02-11T13:07:44.093Z,7.56
2023-02-11T13:08:44.097Z,7.56
2023-02-11T13:09:44.112Z,7.27
2023-02-11T13:10:44.094Z,7.37
2023-02-11T13:11:44.090Z,7.27
2023-02-11T13:12:44.097Z,7.17
2023-02-11T13:13:44.085Z,7.37
2023-02-11T13:14:44.093Z,7.37
2023-02-11T13:15:44.081Z,7.37
2023-02-11T13:16:44.173Z,7.56
2023-02-11T13:17:44.079Z,7.37
2023-02-11T13:18:44.086Z,7.27